Terminal Aerodrome Forecast
Issued by NWS Northern Indiana

Home | Current Version | Previous Version | Graphics & Text | Print | Product List | Glossary On
Versions: 1 2 3 4 5 6 7 8 9 10 11 12 13 14
000
FTUS43 KIWX 181740
TAFFWA
TAF
KFWA 181740Z 1818/1918 25011KT P6SM SCT250
     FM190000 26007KT P6SM FEW250
     FM190800 30002KT 6SM BR FEW250
      TEMPO 1909/1913 4SM BR
     FM191500 VRB03KT P6SM FEW200=

USA.gov is the U.S. government's official web portal to all federal, state and local government web resources and services.